sensor_id;sensor_type;location;lat;lon;timestamp;pressure;altitude;pressure_sealevel;temperature;humidity
68489;BME280;55481;48.764;8.936;2023-06-26T00:00:49;97010;;;18.3;43.5
68489;BME280;55481;48.764;8.936;2023-06-26T00:03:20;97020;;;18.3;43.5
68489;BME280;55481;48.764;8.936;2023-06-26T00:05:44;97010;;;18.5;43.5
68489;BME280;55481;48.764;8.936;2023-06-26T00:08:21;97010;;;18.4;43.5
68489;BME280;55481;48.764;8.936;2023-06-26T00:13:17;97020;;;18.2;44
68489;BME280;55481;48.764;8.936;2023-06-26T00:18:24;97020;;;18.2;44
68489;BME280;55481;48.764;8.936;2023-06-26T00:20:54;97020;;;18.2;44
68489;BME280;55481;48.764;8.936;2023-06-26T00:25:49;97010;;;18.3;44
68489;BME280;55481;48.764;8.936;2023-06-26T00:28:19;97020;;;18.2;44
68489;BME280;55481;48.764;8.936;2023-06-26T00:30:50;97010;;;18.2;44
68489;BME280;55481;48.764;8.936;2023-06-26T00:33:21;97010;;;18.3;44
68489;BME280;55481;48.764;8.936;2023-06-26T00:38:16;97010;;;18.1;44.5
68489;BME280;55481;48.764;8.936;2023-06-26T00:40:48;97010;;;18.2;44.5
68489;BME280;55481;48.764;8.936;2023-06-26T00:43:18;97010;;;18.2;44.5
68489;BME280;55481;48.764;8.936;2023-06-26T00:45:49;97010;;;18;44.5
68489;BME280;55481;48.764;8.936;2023-06-26T00:48:20;97010;;;18.1;44.5
68489;BME280;55481;48.764;8.936;2023-06-26T00:50:51;97010;;;18;45
68489;BME280;55481;48.764;8.936;2023-06-26T00:53:21;97010;;;17.9;45
68489;BME280;55481;48.764;8.936;2023-06-26T00:55:52;97010;;;17.9;45
68489;BME280;55481;48.764;8.936;2023-06-26T00:58:24;97010;;;17.9;45
68489;BME280;55481;48.764;8.936;2023-06-26T01:03:25;97010;;;18;45
68489;BME280;55481;48.764;8.936;2023-06-26T01:08:27;97000;;;17.8;45.5
68489;BME280;55481;48.764;8.936;2023-06-26T01:11:03;97000;;;17.7;45.5
68489;BME280;55481;48.764;8.936;2023-06-26T01:13:34;97010;;;17.9;45
68489;BME280;55481;48.764;8.936;2023-06-26T01:16:12;97010;;;18;45
68489;BME280;55481;48.764;8.936;2023-06-26T01:21:07;97000;;;17.8;45.5
68489;BME280;55481;48.764;8.936;2023-06-26T01:26:17;97000;;;17.9;45.5
68489;BME280;55481;48.764;8.936;2023-06-26T01:28:45;97000;;;17.9;45.5
68489;BME280;55481;48.764;8.936;2023-06-26T01:31:10;97000;;;17.8;45.5
68489;BME280;55481;48.764;8.936;2023-06-26T01:33:40;97000;;;17.8;45.5
68489;BME280;55481;48.764;8.936;2023-06-26T01:36:11;97000;;;17.9;45.5
68489;BME280;55481;48.764;8.936;2023-06-26T01:38:42;96990;;;17.9;45.5
68489;BME280;55481;48.764;8.936;2023-06-26T01:41:19;96990;;;17.9;45.5
68489;BME280;55481;48.764;8.936;2023-06-26T01:43:57;96990;;;18;45.5
68489;BME280;55481;48.764;8.936;2023-06-26T01:48:49;96990;;;18;45.5
68489;BME280;55481;48.764;8.936;2023-06-26T01:51:17;96980;;;18;45.5
68489;BME280;55481;48.764;8.936;2023-06-26T01:53:49;96980;;;18;45.5
68489;BME280;55481;48.764;8.936;2023-06-26T01:56:19;96980;;;17.9;45.5
68489;BME280;55481;48.764;8.936;2023-06-26T01:58:50;96980;;;17.9;45.5
68489;BME280;55481;48.764;8.936;2023-06-26T02:01:27;96980;;;17.9;45.5
68489;BME280;55481;48.764;8.936;2023-06-26T02:03:59;96980;;;17.9;45.5
68489;BME280;55481;48.764;8.936;2023-06-26T02:08:53;96980;;;17.9;45.5
68489;BME280;55481;48.764;8.936;2023-06-26T02:11:25;96980;;;17.9;45.5
68489;BME280;55481;48.764;8.936;2023-06-26T02:13:55;96980;;;17.9;45.5
68489;BME280;55481;48.764;8.936;2023-06-26T02:16:26;96980;;;17.9;45.5
68489;BME280;55481;48.764;8.936;2023-06-26T02:18:49;96980;;;17.8;46
68489;BME280;55481;48.764;8.936;2023-06-26T02:21:21;96980;;;17.8;46
68489;BME280;55481;48.764;8.936;2023-06-26T02:31:23;96980;;;17.7;46.5
68489;BME280;55481;48.764;8.936;2023-06-26T02:33:54;96980;;;17.5;46.5
68489;BME280;55481;48.764;8.936;2023-06-26T02:36:25;96980;;;17.5;46.5
68489;BME280;55481;48.764;8.936;2023-06-26T02:38:56;96980;;;17.4;47
68489;BME280;55481;48.764;8.936;2023-06-26T02:41:33;96990;;;17.3;47
68489;BME280;55481;48.764;8.936;2023-06-26T02:44:04;96990;;;17.3;47
68489;BME280;55481;48.764;8.936;2023-06-26T02:46:35;96980;;;17.4;47
68489;BME280;55481;48.764;8.936;2023-06-26T02:48:59;96980;;;17.4;47
68489;BME280;55481;48.764;8.936;2023-06-26T02:51:32;96980;;;17.4;47
68489;BME280;55481;48.764;8.936;2023-06-26T02:59:02;96990;;;17.4;47
68489;BME280;55481;48.764;8.936;2023-06-26T03:01:33;96980;;;17.5;46.5
68489;BME280;55481;48.764;8.936;2023-06-26T03:04:03;96980;;;17.6;46.5
68489;BME280;55481;48.764;8.936;2023-06-26T03:06:34;96980;;;17.6;46.5
68489;BME280;55481;48.764;8.936;2023-06-26T03:09:06;96990;;;17.5;46.5
68489;BME280;55481;48.764;8.936;2023-06-26T03:14:21;96980;;;17.6;47
68489;BME280;55481;48.764;8.936;2023-06-26T03:16:49;96980;;;17.6;46.5
68489;BME280;55481;48.764;8.936;2023-06-26T03:19:20;96990;;;17.6;47
68489;BME280;55481;48.764;8.936;2023-06-26T03:21:50;96980;;;17.6;47
68489;BME280;55481;48.764;8.936;2023-06-26T03:24:21;96990;;;17.5;47
68489;BME280;55481;48.764;8.936;2023-06-26T03:29:16;96990;;;17.6;47
68489;BME280;55481;48.764;8.936;2023-06-26T03:31:48;96990;;;17.6;47
68489;BME280;55481;48.764;8.936;2023-06-26T03:36:56;96990;;;17.5;47
68489;BME280;55481;48.764;8.936;2023-06-26T03:39:26;96990;;;17.4;47.5
68489;BME280;55481;48.764;8.936;2023-06-26T03:41:50;96990;;;17.5;47.5
68489;BME280;55481;48.764;8.936;2023-06-26T03:44:22;96990;;;17.5;47.5
68489;BME280;55481;48.764;8.936;2023-06-26T03:46:51;96990;;;17.5;47.5
68489;BME280;55481;48.764;8.936;2023-06-26T03:49:23;96990;;;17.4;47.5
68489;BME280;55481;48.764;8.936;2023-06-26T03:56:48;96980;;;17.5;47.5
68489;BME280;55481;48.764;8.936;2023-06-26T04:02:02;96980;;;17.5;47.5
68489;BME280;55481;48.764;8.936;2023-06-26T04:04:32;96990;;;17.4;47.5
68489;BME280;55481;48.764;8.936;2023-06-26T04:09:27;96990;;;17.5;47.5
68489;BME280;55481;48.764;8.936;2023-06-26T04:11:58;96990;;;17.6;47.5
68489;BME280;55481;48.764;8.936;2023-06-26T04:14:28;96980;;;17.6;47.5
68489;BME280;55481;48.764;8.936;2023-06-26T04:19:37;96980;;;17.6;47.5
68489;BME280;55481;48.764;8.936;2023-06-26T04:22:13;96980;;;17.6;47.5
68489;BME280;55481;48.764;8.936;2023-06-26T04:24:50;96980;;;17.6;47.5
68489;BME280;55481;48.764;8.936;2023-06-26T04:27:07;96990;;;17.6;47.5
68489;BME280;55481;48.764;8.936;2023-06-26T04:32:03;96990;;;17.7;47.5
68489;BME280;55481;48.764;8.936;2023-06-26T04:34:32;96980;;;17.9;47.5
68489;BME280;55481;48.764;8.936;2023-06-26T04:37:04;96980;;;17.9;47.5
68489;BME280;55481;48.764;8.936;2023-06-26T04:39:27;96980;;;18;47
68489;BME280;55481;48.764;8.936;2023-06-26T04:47:00;96980;;;18.6;46.5
68489;BME280;55481;48.764;8.936;2023-06-26T04:49:30;96980;;;18.7;46.5
68489;BME280;55481;48.764;8.936;2023-06-26T04:52:01;96970;;;18.7;46.5
68489;BME280;55481;48.764;8.936;2023-06-26T04:54:40;96970;;;18.8;46.5
68489;BME280;55481;48.764;8.936;2023-06-26T04:57:02;96970;;;18.9;46.5
68489;BME280;55481;48.764;8.936;2023-06-26T04:59:46;96970;;;19;46.5
68489;BME280;55481;48.764;8.936;2023-06-26T05:02:04;96970;;;19.1;46.5
68489;BME280;55481;48.764;8.936;2023-06-26T05:04:35;96970;;;19.2;46
68489;BME280;55481;48.764;8.936;2023-06-26T05:07:05;96970;;;19.3;46
68489;BME280;55481;48.764;8.936;2023-06-26T05:09:37;96960;;;19.4;46
68489;BME280;55481;48.764;8.936;2023-06-26T05:17:13;96960;;;19.8;46
68489;BME280;55481;48.764;8.936;2023-06-26T05:19:40;96970;;;19.9;45.5
68489;BME280;55481;48.764;8.936;2023-06-26T05:22:17;96970;;;20;45.5
68489;BME280;55481;48.764;8.936;2023-06-26T05:24:55;96970;;;20.1;45.5
68489;BME280;55481;48.764;8.936;2023-06-26T05:27:20;96970;;;20.2;45.5
68489;BME280;55481;48.764;8.936;2023-06-26T05:32:15;96970;;;20.4;45.5
68489;BME280;55481;48.764;8.936;2023-06-26T05:34:46;96970;;;20.6;45
68489;BME280;55481;48.764;8.936;2023-06-26T05:37:18;96970;;;20.7;45
68489;BME280;55481;48.764;8.936;2023-06-26T05:44:48;96970;;;21.1;45
68489;BME280;55481;48.764;8.936;2023-06-26T05:47:19;96960;;;21.2;45
68489;BME280;55481;48.764;8.936;2023-06-26T05:49:50;96970;;;21.3;44.5
68489;BME280;55481;48.764;8.936;2023-06-26T05:52:21;96970;;;21.3;44.5
68489;BME280;55481;48.764;8.936;2023-06-26T05:54:51;96970;;;21.4;44.5
68489;BME280;55481;48.764;8.936;2023-06-26T05:57:22;96970;;;21.5;44.5
68489;BME280;55481;48.764;8.936;2023-06-26T05:59:53;96960;;;21.6;44.5
68489;BME280;55481;48.764;8.936;2023-06-26T06:05:00;96960;;;21.9;44
68489;BME280;55481;48.764;8.936;2023-06-26T06:07:32;96960;;;22;44
68489;BME280;55481;48.764;8.936;2023-06-26T06:10:02;96960;;;22.3;44
68489;BME280;55481;48.764;8.936;2023-06-26T06:12:39;96960;;;22.4;43.5
68489;BME280;55481;48.764;8.936;2023-06-26T06:20:06;96960;;;22.9;43.5
68489;BME280;55481;48.764;8.936;2023-06-26T06:22:37;96960;;;23.1;43
68489;BME280;55481;48.764;8.936;2023-06-26T06:27:45;96950;;;23.5;43
68489;BME280;55481;48.764;8.936;2023-06-26T06:30:15;96950;;;23.7;42.5
68489;BME280;55481;48.764;8.936;2023-06-26T06:32:38;96960;;;23.9;42.5
68489;BME280;55481;48.764;8.936;2023-06-26T06:35:09;96960;;;24.2;42
68489;BME280;55481;48.764;8.936;2023-06-26T06:37:41;96950;;;24.4;42
68489;BME280;55481;48.764;8.936;2023-06-26T06:40:12;96950;;;24.6;42
68489;BME280;55481;48.764;8.936;2023-06-26T06:42:49;96960;;;24.7;41.5
68489;BME280;55481;48.764;8.936;2023-06-26T06:45:26;96960;;;24.9;41.5
68489;BME280;55481;48.764;8.936;2023-06-26T06:48:03;96960;;;24.9;42
68489;BME280;55481;48.764;8.936;2023-06-26T06:50:13;96960;;;25;42
68489;BME280;55481;48.764;8.936;2023-06-26T06:52:44;96960;;;25.2;41.5
68489;BME280;55481;48.764;8.936;2023-06-26T06:57:39;96960;;;25.5;41.5
68489;BME280;55481;48.764;8.936;2023-06-26T07:00:10;96960;;;25.6;41.5
68489;BME280;55481;48.764;8.936;2023-06-26T07:02:41;96950;;;25.8;41
68489;BME280;55481;48.764;8.936;2023-06-26T07:12:47;96940;;;26.4;40.5
68489;BME280;55481;48.764;8.936;2023-06-26T07:15:14;96950;;;26.7;40.5
68489;BME280;55481;48.764;8.936;2023-06-26T07:17:44;96950;;;26.9;40
68489;BME280;55481;48.764;8.936;2023-06-26T07:20:29;96950;;;27;40
68489;BME280;55481;48.764;8.936;2023-06-26T07:22:59;96950;;;27.1;40
68489;BME280;55481;48.764;8.936;2023-06-26T07:27:53;96940;;;27.3;40
68489;BME280;55481;48.764;8.936;2023-06-26T07:30:24;96950;;;27.3;40
68489;BME280;55481;48.764;8.936;2023-06-26T07:32:54;96950;;;27.4;40
68489;BME280;55481;48.764;8.936;2023-06-26T07:35:25;96950;;;27.5;40
68489;BME280;55481;48.764;8.936;2023-06-26T07:38:03;96950;;;27.6;40
68489;BME280;55481;48.764;8.936;2023-06-26T07:40:34;96940;;;27.8;39.5
68489;BME280;55481;48.764;8.936;2023-06-26T07:45:30;96940;;;28.4;39
68489;BME280;55481;48.764;8.936;2023-06-26T07:48:00;96950;;;28.5;39
68489;BME280;55481;48.764;8.936;2023-06-26T07:50:32;96950;;;28.5;39
68489;BME280;55481;48.764;8.936;2023-06-26T07:53:03;96950;;;28.5;39
68489;BME280;55481;48.764;8.936;2023-06-26T07:55:33;96950;;;28.8;39
68489;BME280;55481;48.764;8.936;2023-06-26T07:58:04;96950;;;28.8;39
68489;BME280;55481;48.764;8.936;2023-06-26T08:02:59;96960;;;28.6;39.5
68489;BME280;55481;48.764;8.936;2023-06-26T08:08:02;96950;;;28.7;39.5
68489;BME280;55481;48.764;8.936;2023-06-26T08:10:32;96950;;;28.8;39
68489;BME280;55481;48.764;8.936;2023-06-26T08:13:03;96950;;;28.9;39
68489;BME280;55481;48.764;8.936;2023-06-26T08:15:33;96950;;;29.2;38.5
68489;BME280;55481;48.764;8.936;2023-06-26T08:18:04;96950;;;29.5;38
68489;BME280;55481;48.764;8.936;2023-06-26T08:20:35;96940;;;29.5;38
68489;BME280;55481;48.764;8.936;2023-06-26T08:28:07;96940;;;29.5;38.5
68489;BME280;55481;48.764;8.936;2023-06-26T08:30:38;96940;;;29.5;38.5
68489;BME280;55481;48.764;8.936;2023-06-26T08:33:15;96940;;;29.6;38.5
68489;BME280;55481;48.764;8.936;2023-06-26T08:35:46;96940;;;29.5;38.5
68489;BME280;55481;48.764;8.936;2023-06-26T08:40:42;96940;;;29.5;38.5
68489;BME280;55481;48.764;8.936;2023-06-26T08:45:43;96940;;;29.6;38.5
68489;BME280;55481;48.764;8.936;2023-06-26T08:48:14;96930;;;29.9;38
68489;BME280;55481;48.764;8.936;2023-06-26T08:50:45;96930;;;30;38
68489;BME280;55481;48.764;8.936;2023-06-26T08:55:46;96940;;;30.1;38
68489;BME280;55481;48.764;8.936;2023-06-26T09:01:04;96940;;;30.1;38
68489;BME280;55481;48.764;8.936;2023-06-26T09:03:32;96940;;;30.3;38
68489;BME280;55481;48.764;8.936;2023-06-26T09:08:31;96940;;;30.6;37.5
68489;BME280;55481;48.764;8.936;2023-06-26T09:10:56;96940;;;30.4;38
68489;BME280;55481;48.764;8.936;2023-06-26T09:13:28;96940;;;30.4;38
68489;BME280;55481;48.764;8.936;2023-06-26T09:15:57;96940;;;30.7;37.5
68489;BME280;55481;48.764;8.936;2023-06-26T09:18:28;96940;;;30.6;38
68489;BME280;55481;48.764;8.936;2023-06-26T09:20:59;96940;;;30;38.5
68489;BME280;55481;48.764;8.936;2023-06-26T09:23:31;96940;;;30.2;38.5
68489;BME280;55481;48.764;8.936;2023-06-26T09:26:02;96930;;;30.3;38
68489;BME280;55481;48.764;8.936;2023-06-26T09:28:32;96940;;;30.2;38.5
68489;BME280;55481;48.764;8.936;2023-06-26T09:31:04;96950;;;29.7;39
68489;BME280;55481;48.764;8.936;2023-06-26T09:33:34;96940;;;29.4;39.5
68489;BME280;55481;48.764;8.936;2023-06-26T09:36:19;96930;;;30;38.5
68489;BME280;55481;48.764;8.936;2023-06-26T09:41:07;96940;;;30.9;37
68489;BME280;55481;48.764;8.936;2023-06-26T09:43:46;96940;;;30.3;38
68489;BME280;55481;48.764;8.936;2023-06-26T09:46:09;96940;;;30.1;38.5
68489;BME280;55481;48.764;8.936;2023-06-26T09:48:40;96940;;;30.2;38.5
68489;BME280;55481;48.764;8.936;2023-06-26T09:51:11;96940;;;30.2;38.5
68489;BME280;55481;48.764;8.936;2023-06-26T09:53:42;96930;;;31;37
68489;BME280;55481;48.764;8.936;2023-06-26T09:56:15;96920;;;31.4;36.5
68489;BME280;55481;48.764;8.936;2023-06-26T09:58:44;96930;;;31.6;36.5
68489;BME280;55481;48.764;8.936;2023-06-26T10:01:15;96930;;;30.7;37.5
68489;BME280;55481;48.764;8.936;2023-06-26T10:03:59;96940;;;29.9;39
68489;BME280;55481;48.764;8.936;2023-06-26T10:06:28;96940;;;29.4;39.5
68489;BME280;55481;48.764;8.936;2023-06-26T10:11:21;96950;;;29.5;39.5
68489;BME280;55481;48.764;8.936;2023-06-26T10:13:50;96950;;;30.1;38.5
68489;BME280;55481;48.764;8.936;2023-06-26T10:16:22;96960;;;30.3;38
68489;BME280;55481;48.764;8.936;2023-06-26T10:18:53;96960;;;30.2;38
68489;BME280;55481;48.764;8.936;2023-06-26T10:21:23;96960;;;30.5;37.5
68489;BME280;55481;48.764;8.936;2023-06-26T10:23:54;96970;;;30.4;38
68489;BME280;55481;48.764;8.936;2023-06-26T10:26:25;96970;;;29.9;38.5
68489;BME280;55481;48.764;8.936;2023-06-26T10:28:56;96980;;;29.6;39
68489;BME280;55481;48.764;8.936;2023-06-26T10:31:26;96980;;;29.7;39
68489;BME280;55481;48.764;8.936;2023-06-26T10:34:05;96980;;;29.6;39
68489;BME280;55481;48.764;8.936;2023-06-26T10:36:35;96990;;;29.9;38.5
68489;BME280;55481;48.764;8.936;2023-06-26T10:41:36;96980;;;30.3;38
68489;BME280;55481;48.764;8.936;2023-06-26T10:44:09;97000;;;29.8;38.5
68489;BME280;55481;48.764;8.936;2023-06-26T10:49:09;97000;;;29.3;39.5
68489;BME280;55481;48.764;8.936;2023-06-26T10:51:39;97000;;;28.8;40
68489;BME280;55481;48.764;8.936;2023-06-26T10:56:40;97000;;;28.8;40
68489;BME280;55481;48.764;8.936;2023-06-26T10:59:20;97000;;;29.2;39.5
68489;BME280;55481;48.764;8.936;2023-06-26T11:01:42;97000;;;30.1;38
68489;BME280;55481;48.764;8.936;2023-06-26T11:04:13;97000;;;30.2;38
68489;BME280;55481;48.764;8.936;2023-06-26T11:09:27;97000;;;29.3;39
68489;BME280;55481;48.764;8.936;2023-06-26T11:11:55;97000;;;28.7;40
68489;BME280;55481;48.764;8.936;2023-06-26T11:16:38;97010;;;29.1;39.5
68489;BME280;55481;48.764;8.936;2023-06-26T11:19:09;97000;;;29.8;38
68489;BME280;55481;48.764;8.936;2023-06-26T11:21:40;97000;;;30.2;37.5
68489;BME280;55481;48.764;8.936;2023-06-26T11:24:04;96990;;;30.4;37.5
68489;BME280;55481;48.764;8.936;2023-06-26T11:31:37;97000;;;30.7;37.5
68489;BME280;55481;48.764;8.936;2023-06-26T11:34:09;97010;;;31;37
68489;BME280;55481;48.764;8.936;2023-06-26T11:36:38;97010;;;31.2;37
68489;BME280;55481;48.764;8.936;2023-06-26T11:39:09;97000;;;31.3;37
68489;BME280;55481;48.764;8.936;2023-06-26T11:41:44;97020;;;31.4;37
68489;BME280;55481;48.764;8.936;2023-06-26T11:44:10;97020;;;31.9;36.5
68489;BME280;55481;48.764;8.936;2023-06-26T11:51:42;97030;;;30.5;38.5
68489;BME280;55481;48.764;8.936;2023-06-26T11:56:51;97030;;;30.7;38.5
68489;BME280;55481;48.764;8.936;2023-06-26T11:59:15;97030;;;30.3;39
68489;BME280;55481;48.764;8.936;2023-06-26T12:01:58;97030;;;30.9;38
68489;BME280;55481;48.764;8.936;2023-06-26T12:04:17;97030;;;31.8;36.5
68489;BME280;55481;48.764;8.936;2023-06-26T12:06:54;97020;;;32.1;36.5
68489;BME280;55481;48.764;8.936;2023-06-26T12:09:25;97020;;;32.4;36
68489;BME280;55481;48.764;8.936;2023-06-26T12:11:56;97020;;;32.5;36
68489;BME280;55481;48.764;8.936;2023-06-26T12:14:27;97020;;;32.4;36.5
68489;BME280;55481;48.764;8.936;2023-06-26T12:16:51;97030;;;32.2;36.5
68489;BME280;55481;48.764;8.936;2023-06-26T12:26:54;97030;;;32.3;37
68489;BME280;55481;48.764;8.936;2023-06-26T12:29:29;97020;;;32.7;36.5
68489;BME280;55481;48.764;8.936;2023-06-26T12:31:55;97020;;;32.1;37.5
68489;BME280;55481;48.764;8.936;2023-06-26T12:34:27;97020;;;32.4;37
68489;BME280;55481;48.764;8.936;2023-06-26T12:39:49;97020;;;32.7;36.5
68489;BME280;55481;48.764;8.936;2023-06-26T12:42:05;97020;;;32.4;37
68489;BME280;55481;48.764;8.936;2023-06-26T12:47:10;97030;;;32.5;37
68489;BME280;55481;48.764;8.936;2023-06-26T12:52:11;97030;;;32.7;37
68489;BME280;55481;48.764;8.936;2023-06-26T12:54:40;97030;;;32.4;37.5
68489;BME280;55481;48.764;8.936;2023-06-26T12:57:10;97030;;;32.5;37
68489;BME280;55481;48.764;8.936;2023-06-26T12:59:41;97030;;;32.5;37
68489;BME280;55481;48.764;8.936;2023-06-26T13:02:18;97030;;;33;36.5
68489;BME280;55481;48.764;8.936;2023-06-26T13:04:58;97030;;;32.9;36.5
68489;BME280;55481;48.764;8.936;2023-06-26T13:07:18;97030;;;32.4;37.5
68489;BME280;55481;48.764;8.936;2023-06-26T13:09:49;97040;;;32.6;37
68489;BME280;55481;48.764;8.936;2023-06-26T13:14:45;97030;;;33;36.5
68489;BME280;55481;48.764;8.936;2023-06-26T13:17:22;97030;;;33.5;36
68489;BME280;55481;48.764;8.936;2023-06-26T13:22:23;97030;;;32.7;37
68489;BME280;55481;48.764;8.936;2023-06-26T13:24:53;97020;;;33.1;36.5
68489;BME280;55481;48.764;8.936;2023-06-26T13:27:19;97030;;;33.5;36
68489;BME280;55481;48.764;8.936;2023-06-26T13:29:47;97020;;;34;35
68489;BME280;55481;48.764;8.936;2023-06-26T13:32:20;97020;;;34;35
68489;BME280;55481;48.764;8.936;2023-06-26T13:35:12;97020;;;33.6;36
68489;BME280;55481;48.764;8.936;2023-06-26T13:37:27;97020;;;33;36.5
68489;BME280;55481;48.764;8.936;2023-06-26T13:39:52;97020;;;33.5;36
68489;BME280;55481;48.764;8.936;2023-06-26T13:42:22;97030;;;33.6;35.5
68489;BME280;55481;48.764;8.936;2023-06-26T13:44:54;97030;;;33.8;35
68489;BME280;55481;48.764;8.936;2023-06-26T13:47:25;97020;;;33.8;35.5
68489;BME280;55481;48.764;8.936;2023-06-26T13:49:55;97010;;;33.5;35.5
68489;BME280;55481;48.764;8.936;2023-06-26T13:52:26;97020;;;33.7;35.5
68489;BME280;55481;48.764;8.936;2023-06-26T13:57:22;97020;;;34.1;35
68489;BME280;55481;48.764;8.936;2023-06-26T14:07:25;97020;;;33.6;35.5
68489;BME280;55481;48.764;8.936;2023-06-26T14:09:55;97020;;;33.6;35
68489;BME280;55481;48.764;8.936;2023-06-26T14:12:27;97020;;;33.3;35.5
68489;BME280;55481;48.764;8.936;2023-06-26T14:14:57;97030;;;33.4;35
68489;BME280;55481;48.764;8.936;2023-06-26T14:17:34;97030;;;33.7;34.5
68489;BME280;55481;48.764;8.936;2023-06-26T14:20:06;97030;;;33.2;35.5
68489;BME280;55481;48.764;8.936;2023-06-26T14:22:36;97030;;;32.7;36
68489;BME280;55481;48.764;8.936;2023-06-26T14:25:07;97040;;;32.7;35.5
68489;BME280;55481;48.764;8.936;2023-06-26T14:27:38;97040;;;33.4;34.5
68489;BME280;55481;48.764;8.936;2023-06-26T14:30:09;97040;;;33.7;34
68489;BME280;55481;48.764;8.936;2023-06-26T14:32:47;97040;;;34.3;33.5
68489;BME280;55481;48.764;8.936;2023-06-26T14:37:44;97050;;;34.1;33.5
68489;BME280;55481;48.764;8.936;2023-06-26T14:45:15;97050;;;32.9;35
68489;BME280;55481;48.764;8.936;2023-06-26T14:47:46;97050;;;33.8;33.5
68489;BME280;55481;48.764;8.936;2023-06-26T14:50:15;97050;;;33.9;33.5
68489;BME280;55481;48.764;8.936;2023-06-26T14:52:47;97050;;;33.6;34
68489;BME280;55481;48.764;8.936;2023-06-26T14:55:18;97050;;;33.3;34
68489;BME280;55481;48.764;8.936;2023-06-26T14:57:48;97050;;;32.5;35.5
68489;BME280;55481;48.764;8.936;2023-06-26T15:00:21;97060;;;31.9;36
68489;BME280;55481;48.764;8.936;2023-06-26T15:02:43;97060;;;31.9;35.5
68489;BME280;55481;48.764;8.936;2023-06-26T15:10:16;97050;;;33.9;32.5
68489;BME280;55481;48.764;8.936;2023-06-26T15:12:46;97050;;;33.5;33
68489;BME280;55481;48.764;8.936;2023-06-26T15:15:16;97050;;;32.8;34
68489;BME280;55481;48.764;8.936;2023-06-26T15:17:47;97060;;;32;35.5
68489;BME280;55481;48.764;8.936;2023-06-26T15:20:26;97060;;;31.5;36
68489;BME280;55481;48.764;8.936;2023-06-26T15:22:56;97060;;;31.1;36.5
68489;BME280;55481;48.764;8.936;2023-06-26T15:27:51;97070;;;29.6;38
68489;BME280;55481;48.764;8.936;2023-06-26T15:30:35;97060;;;29.3;38
68489;BME280;55481;48.764;8.936;2023-06-26T15:33:05;97060;;;29.4;37.5
68489;BME280;55481;48.764;8.936;2023-06-26T15:40:31;97050;;;28.7;38
68489;BME280;55481;48.764;8.936;2023-06-26T15:43:01;97040;;;28.5;38
68489;BME280;55481;48.764;8.936;2023-06-26T15:45:32;97050;;;28.4;38.5
68489;BME280;55481;48.764;8.936;2023-06-26T15:48:05;97040;;;28.1;38.5
68489;BME280;55481;48.764;8.936;2023-06-26T15:50:34;97040;;;27.9;38.5
68489;BME280;55481;48.764;8.936;2023-06-26T15:53:05;97050;;;27.8;38.5
68489;BME280;55481;48.764;8.936;2023-06-26T15:55:36;97040;;;28;38
68489;BME280;55481;48.764;8.936;2023-06-26T15:58:08;97050;;;28.1;38
68489;BME280;55481;48.764;8.936;2023-06-26T16:00:37;97050;;;27.7;38.5
68489;BME280;55481;48.764;8.936;2023-06-26T16:03:09;97050;;;27.2;39
68489;BME280;55481;48.764;8.936;2023-06-26T16:06:52;97050;;;27.3;39
68489;BME280;55481;48.764;8.936;2023-06-26T16:08:48;97050;;;27.5;39
68489;BME280;55481;48.764;8.936;2023-06-26T16:11:19;97050;;;27.2;39.5
68489;BME280;55481;48.764;8.936;2023-06-26T16:13:50;97050;;;27.2;39
68489;BME280;55481;48.764;8.936;2023-06-26T16:16:21;97050;;;27.3;38.5
68489;BME280;55481;48.764;8.936;2023-06-26T16:18:51;97060;;;27.1;38.5
68489;BME280;55481;48.764;8.936;2023-06-26T16:21:22;97060;;;27;38.5
68489;BME280;55481;48.764;8.936;2023-06-26T16:23:53;97060;;;26.9;39
68489;BME280;55481;48.764;8.936;2023-06-26T16:26:30;97060;;;26.8;39
68489;BME280;55481;48.764;8.936;2023-06-26T16:29:01;97060;;;26.9;38.5
68489;BME280;55481;48.764;8.936;2023-06-26T16:31:39;97060;;;27;38
68489;BME280;55481;48.764;8.936;2023-06-26T16:34:12;97060;;;27.4;37.5
68489;BME280;55481;48.764;8.936;2023-06-26T16:36:34;97060;;;27.3;37.5
68489;BME280;55481;48.764;8.936;2023-06-26T16:39:12;97060;;;27;38
68489;BME280;55481;48.764;8.936;2023-06-26T16:44:21;97060;;;26.7;38.5
68489;BME280;55481;48.764;8.936;2023-06-26T16:49:18;97060;;;26.6;38.5
68489;BME280;55481;48.764;8.936;2023-06-26T16:51:44;97070;;;26.2;39
68489;BME280;55481;48.764;8.936;2023-06-26T16:54:09;97070;;;26.1;39
68489;BME280;55481;48.764;8.936;2023-06-26T16:56:39;97070;;;26;39
68489;BME280;55481;48.764;8.936;2023-06-26T16:59:10;97080;;;25.8;39
68489;BME280;55481;48.764;8.936;2023-06-26T17:06:36;97090;;;25.6;39
68489;BME280;55481;48.764;8.936;2023-06-26T17:09:07;97080;;;25.5;39
68489;BME280;55481;48.764;8.936;2023-06-26T17:11:38;97090;;;25.6;39
68489;BME280;55481;48.764;8.936;2023-06-26T17:14:08;97080;;;25.7;38.5
68489;BME280;55481;48.764;8.936;2023-06-26T17:16:53;97080;;;25.6;38.5
68489;BME280;55481;48.764;8.936;2023-06-26T17:19:21;97080;;;25.5;38.5
68489;BME280;55481;48.764;8.936;2023-06-26T17:21:47;97080;;;25.5;38.5
68489;BME280;55481;48.764;8.936;2023-06-26T17:24:18;97080;;;25.4;38.5
68489;BME280;55481;48.764;8.936;2023-06-26T17:26:49;97080;;;25.4;38.5
68489;BME280;55481;48.764;8.936;2023-06-26T17:31:52;97090;;;25.3;38.5
68489;BME280;55481;48.764;8.936;2023-06-26T17:37:00;97100;;;25.2;38.5
68489;BME280;55481;48.764;8.936;2023-06-26T17:39:30;97100;;;25.1;38.5
68489;BME280;55481;48.764;8.936;2023-06-26T17:42:00;97100;;;24.9;39
68489;BME280;55481;48.764;8.936;2023-06-26T17:44:30;97100;;;24.8;39
68489;BME280;55481;48.764;8.936;2023-06-26T17:47:01;97110;;;24.8;39
68489;BME280;55481;48.764;8.936;2023-06-26T17:49:30;97110;;;24.6;39
68489;BME280;55481;48.764;8.936;2023-06-26T17:54:26;97120;;;24.3;39.5
68489;BME280;55481;48.764;8.936;2023-06-26T17:56:57;97110;;;24.3;39.5
68489;BME280;55481;48.764;8.936;2023-06-26T17:59:28;97130;;;24.2;39.5
68489;BME280;55481;48.764;8.936;2023-06-26T18:04:37;97130;;;24.1;39
68489;BME280;55481;48.764;8.936;2023-06-26T18:07:07;97130;;;24.1;39
68489;BME280;55481;48.764;8.936;2023-06-26T18:09:31;97150;;;24.1;39
68489;BME280;55481;48.764;8.936;2023-06-26T18:12:02;97140;;;24;39
68489;BME280;55481;48.764;8.936;2023-06-26T18:14:33;97150;;;23.9;39